.
WxDataArchive / Data Records for 2008-10-13
2008-10-12 October 2008 2008-10-14

Data Records for Monday, 13 October 2008

Time	Temp	Chill	HIndex	Humid	Dewpt	 Wind 	HiWind	WindDir	Rain 	Barom 
-----	----	-----	------	-----	-----	------	------	-------	-----	----- 
00:00	54.8	54.8	54.8	66	43.7	0	0	---	0.00	30.288 
00:05	55.3	55.3	55.3	65	43.7	0	1	112	0.00	30.283 
00:10	55.6	55.6	55.6	63	43.2	0	0	---	0.00	30.283 
00:15	55.9	55.9	55.9	62	43.1	0	0	---	0.00	30.284 
00:20	56.0	56.0	56.0	62	43.2	0	0	---	0.00	30.284 
00:25	55.9	55.9	55.9	63	43.5	0	0	---	0.00	30.284 
00:30	55.7	55.7	55.7	63	43.3	0	0	---	0.00	30.285 
00:35	55.6	55.6	55.6	64	43.6	0	0	---	0.00	30.288 
00:40	55.3	55.3	55.3	64	43.3	0	0	---	0.00	30.289 
00:45	55.1	55.1	55.1	63	42.7	0	0	---	0.00	30.289 
00:50	54.8	54.8	54.8	63	42.4	0	0	---	0.00	30.290 
00:55	54.7	54.7	54.7	63	42.4	0	0	---	0.00	30.290 
01:00	54.5	54.5	54.5	64	42.6	0	0	---	0.00	30.291 
01:05	54.2	54.2	54.2	65	42.7	0	0	---	0.00	30.292 
01:10	53.9	53.9	53.9	65	42.4	0	0	---	0.00	30.292 
01:15	53.8	53.8	53.8	66	42.7	0	0	---	0.00	30.292 
01:20	53.5	53.5	53.5	67	42.8	0	0	---	0.00	30.293 
01:25	53.3	53.3	53.3	69	43.4	0	0	---	0.00	30.292 
01:30	53.1	53.1	53.1	69	43.2	0	0	---	0.00	30.291 
01:35	52.8	52.8	52.8	71	43.7	0	0	---	0.00	30.293 
01:40	52.6	52.6	52.6	73	44.2	0	0	---	0.00	30.292 
01:45	52.5	52.5	52.5	73	44.1	0	0	---	0.00	30.292 
01:50	52.2	52.2	52.2	75	44.5	0	0	---	0.00	30.292 
01:55	52.0	52.0	52.0	75	44.3	0	0	---	0.00	30.293 
02:00	51.7	51.7	51.7	76	44.4	0	0	---	0.00	30.293 
02:05	51.6	51.6	51.6	76	44.3	0	0	---	0.00	30.291 
02:10	51.3	51.3	51.3	77	44.3	0	0	---	0.00	30.292 
02:15	51.1	51.1	51.1	77	44.1	0	0	---	0.00	30.292 
02:20	51.0	51.0	51.0	78	44.4	0	0	---	0.00	30.292 
02:25	50.8	50.8	50.8	78	44.2	0	0	---	0.00	30.291 
02:30	50.7	50.7	50.7	77	43.8	0	0	---	0.00	30.290 
02:35	50.5	50.5	50.5	78	43.9	0	0	---	0.00	30.290 
02:40	50.4	50.4	50.4	78	43.8	0	0	---	0.00	30.291 
02:45	50.4	50.4	50.4	78	43.8	0	0	---	0.00	30.288 
02:50	50.2	50.2	50.2	79	43.9	0	0	---	0.00	30.287 
02:55	50.2	50.2	50.2	79	43.9	0	0	---	0.00	30.284 
03:00	50.1	50.1	50.1	79	43.8	0	0	---	0.00	30.284 
03:05	50.1	50.1	50.1	79	43.8	0	0	---	0.00	30.282 
03:10	49.9	49.9	49.9	80	44.0	0	0	---	0.00	30.279 
03:15	49.8	49.8	49.8	80	43.9	0	0	---	0.00	30.278 
03:20	49.8	49.8	49.8	81	44.2	0	0	---	0.00	30.280 
03:25	49.6	49.6	49.6	81	44.0	0	0	---	0.00	30.278 
03:30	49.5	49.5	49.5	81	43.9	0	0	---	0.00	30.276 
03:35	49.4	49.4	49.4	82	44.1	0	0	---	0.00	30.278 
03:40	49.2	49.2	49.2	82	43.9	0	0	---	0.00	30.278 
03:45	49.2	49.2	49.2	83	44.3	0	0	---	0.00	30.279 
03:50	49.2	49.2	49.2	84	44.6	0	0	---	0.00	30.279 
03:55	49.1	49.1	49.1	84	44.5	0	0	---	0.00	30.280 
04:00	49.1	49.1	49.1	84	44.5	0	0	---	0.00	30.279 
04:05	48.9	48.9	48.9	84	44.3	0	0	---	0.00	30.280 
04:10	48.9	48.9	48.9	85	44.6	0	0	---	0.00	30.279 
04:15	48.8	48.8	48.8	85	44.5	0	0	---	0.00	30.277 
04:20	48.8	48.8	48.8	86	44.8	0	0	---	0.00	30.279 
04:25	48.9	48.9	48.9	86	44.9	0	0	---	0.00	30.279 
04:30	48.8	48.8	48.8	87	45.1	0	0	---	0.00	30.279 
04:35	48.8	48.8	48.8	87	45.1	0	0	---	0.00	30.278 
04:40	48.8	48.8	48.8	88	45.4	0	0	---	0.00	30.278 
04:45	48.8	48.8	48.8	88	45.4	0	0	---	0.00	30.279 
04:50	48.6	48.6	48.6	89	45.5	0	0	---	0.00	30.280 
04:55	48.6	48.6	48.6	89	45.5	0	0	---	0.00	30.280 
05:00	48.5	48.5	48.5	89	45.4	0	0	---	0.00	30.280 
05:05	48.5	48.5	48.5	90	45.7	0	0	---	0.00	30.284 
05:10	48.3	48.3	48.3	90	45.5	0	0	---	0.00	30.285 
05:15	48.3	48.3	48.3	90	45.5	0	0	---	0.00	30.286 
05:20	48.2	48.2	48.2	90	45.4	0	0	---	0.00	30.287 
05:25	48.0	48.0	48.0	90	45.2	0	0	---	0.00	30.287 
05:30	48.0	48.0	48.0	90	45.2	0	0	---	0.00	30.287 
05:35	47.9	47.9	47.9	91	45.4	0	0	---	0.00	30.288 
05:40	47.9	47.9	47.9	91	45.4	0	0	---	0.00	30.289 
05:45	47.7	47.7	47.7	91	45.2	0	0	---	0.00	30.290 
05:50	47.7	47.7	47.7	91	45.2	0	0	---	0.00	30.292 
05:55	47.7	47.7	47.7	92	45.5	0	0	---	0.00	30.293 
06:00	47.6	47.6	47.6	92	45.4	0	0	---	0.00	30.293 
06:05	47.6	47.6	47.6	92	45.4	0	0	---	0.00	30.300 
06:10	47.4	47.4	47.4	92	45.2	0	0	---	0.00	30.301 
06:15	47.3	47.3	47.3	92	45.1	0	0	---	0.00	30.303 
06:20	47.1	47.1	47.1	92	44.9	0	0	---	0.00	30.304 
06:25	47.0	47.0	47.0	92	44.8	0	0	---	0.00	30.301 
06:30	47.0	47.0	47.0	92	44.8	0	0	---	0.00	30.303 
06:35	47.0	47.0	47.0	92	44.8	0	0	---	0.00	30.304 
06:40	47.0	47.0	47.0	92	44.8	0	0	---	0.00	30.302 
06:45	47.0	47.0	47.0	92	44.8	0	0	---	0.00	30.300 
06:50	47.0	47.0	47.0	92	44.8	0	0	---	0.00	30.303 
06:55	47.0	47.0	47.0	92	44.8	0	0	---	0.00	30.305 
07:00	47.0	47.0	47.0	92	44.8	0	0	---	0.00	30.304 
07:05	47.0	47.0	47.0	93	45.1	0	0	---	0.00	30.309 
07:10	47.1	47.1	47.1	93	45.2	0	0	---	0.00	30.312 
07:15	47.1	47.1	47.1	93	45.2	0	0	---	0.00	30.312 
07:20	47.3	47.3	47.3	93	45.4	0	0	---	0.00	30.312 
07:25	47.4	47.4	47.4	93	45.5	0	0	---	0.00	30.313 
07:30	47.6	47.6	47.6	93	45.7	0	0	---	0.00	30.314 
07:35	48.0	48.0	48.0	93	46.1	0	0	---	0.00	30.313 
07:40	48.6	48.6	48.6	93	46.7	0	0	---	0.00	30.313 
07:45	49.1	49.1	49.1	93	47.2	0	0	---	0.00	30.311 
07:50	49.4	49.4	49.4	93	47.5	0	0	---	0.00	30.311 
07:55	49.8	49.8	49.8	93	47.9	0	0	---	0.00	30.311 
08:00	50.1	50.1	50.1	93	48.2	0	0	---	0.00	30.311 
08:05	50.4	50.4	50.4	93	48.5	0	0	---	0.00	30.311 
08:10	50.8	50.8	50.8	93	48.8	0	0	---	0.00	30.311 
08:15	51.3	51.3	51.3	92	49.1	0	0	---	0.00	30.312 
08:20	51.9	51.9	51.9	91	49.4	0	1	112	0.00	30.309 
08:25	52.8	52.8	52.8	87	49.0	0	1	112	0.00	30.311 
08:30	53.6	53.6	53.6	85	49.2	0	0	---	0.00	30.309 
08:35	54.4	54.4	54.4	83	49.3	0	0	---	0.00	30.310 
08:40	55.3	55.3	55.3	78	48.6	0	1	112	0.00	30.309 
08:45	56.2	56.2	56.2	75	48.4	0	1	112	0.00	30.307 
08:50	57.0	57.0	57.0	72	48.1	0	0	---	0.00	30.309 
08:55	58.0	58.0	58.0	70	48.3	0	1	112	0.00	30.306 
09:00	58.6	58.6	58.6	70	48.8	0	0	---	0.00	30.308 
09:05	59.3	59.3	59.3	69	49.1	0	0	---	0.00	30.310 
09:10	60.1	60.1	60.1	68	49.5	0	0	---	0.00	30.307 
09:15	60.9	60.9	60.9	66	49.5	0	1	112	0.00	30.307 
09:20	61.5	61.5	61.5	66	50.0	0	1	112	0.00	30.309 
09:25	62.0	62.0	62.0	65	50.1	0	0	---	0.00	30.307 
09:30	62.6	62.6	62.6	64	50.2	0	1	112	0.00	30.304 
09:35	63.2	63.2	63.2	62	50.0	0	1	112	0.00	30.303 
09:40	63.9	63.9	63.9	61	50.2	0	0	---	0.00	30.301 
09:45	64.3	64.3	64.3	60	50.1	0	0	---	0.00	30.300 
09:50	65.0	65.0	65.0	61	51.2	0	1	112	0.00	30.300 
09:55	66.0	66.0	66.0	58	50.8	0	1	112	0.00	30.298 
10:00	67.3	67.3	67.3	54	50.1	0	1	112	0.00	30.297 
10:05	68.3	68.3	68.3	53	50.5	0	1	112	0.00	30.297 
10:10	68.9	68.9	68.9	51	50.0	0	3	112	0.00	30.295 
10:15	69.6	69.6	69.6	50	50.1	0	1	112	0.00	30.292 
10:20	70.1	70.1	70.1	51	51.1	0	1	112	0.00	30.289 
10:25	70.4	70.4	70.4	49	50.3	0	2	202	0.00	30.287 
10:30	70.9	70.9	70.9	48	50.2	0	2	112	0.00	30.289 
10:35	71.1	71.1	71.1	48	50.4	0	2	112	0.00	30.290 
10:40	71.5	71.5	71.5	48	50.8	0	2	248	0.00	30.290 
10:45	72.1	72.1	72.1	48	51.3	0	2	248	0.00	30.288 
10:50	73.0	73.0	73.0	46	51.0	0	2	248	0.00	30.289 
10:55	73.9	73.9	73.9	44	50.6	0	2	248	0.00	30.285 
11:00	74.7	74.7	74.7	43	50.7	0	3	248	0.00	30.284 
11:05	75.4	75.4	77.6	41	50.0	1	2	248	0.00	30.284 
11:10	75.8	75.8	77.7	40	49.7	0	1	248	0.00	30.283 
11:15	76.3	76.3	77.8	37	48.1	1	4	248	0.00	30.281 
11:20	76.8	76.8	78.0	38	49.2	1	3	270	0.00	30.278 
11:25	77.2	77.2	78.2	37	48.9	1	4	248	0.00	30.278 
11:30	77.6	77.6	78.2	35	47.8	1	3	270	0.00	30.278 
11:35	77.9	77.9	78.6	39	50.9	0	3	248	0.00	30.278 
11:40	78.3	78.3	78.6	36	49.1	0	3	248	0.00	30.277 
11:45	78.5	78.5	78.7	36	49.3	1	2	270	0.00	30.273 
11:50	78.5	78.5	78.7	35	48.5	1	3	270	0.00	30.273 
11:55	78.6	78.6	78.8	36	49.4	0	2	270	0.00	30.271 
12:00	78.8	78.8	79.2	40	52.4	0	1	270	0.00	30.270 
12:05	78.8	78.8	78.8	34	48.0	0	2	270	0.00	30.268 
12:10	79.2	79.2	79.1	35	49.2	0	3	270	0.00	30.263 
12:15	79.6	79.6	79.4	36	50.3	0	2	270	0.00	30.262 
12:20	79.8	79.8	79.4	35	49.7	1	3	270	0.00	30.261 
12:25	80.1	80.1	79.5	34	49.2	1	4	270	0.00	30.260 
12:30	80.3	80.3	79.7	34	49.3	1	4	270	0.00	30.259 
12:35	80.1	80.1	79.7	36	50.7	1	2	338	0.00	30.256 
12:40	79.8	79.8	79.5	36	50.4	1	3	292	0.00	30.254 
12:45	79.8	79.8	79.6	37	51.2	1	3	270	0.00	30.247 
12:50	80.1	80.1	79.8	38	52.2	0	2	270	0.00	30.246 
12:55	80.5	80.5	80.0	37	51.8	1	2	270	0.00	30.244 
13:00	80.9	80.9	80.4	38	52.9	0	3	248	0.00	30.239 
13:05	81.1	81.1	80.4	37	52.3	1	2	248	0.00	30.239 
13:10	81.2	81.2	80.4	36	51.7	1	4	248	0.00	30.235 
13:15	81.4	81.4	80.7	37	52.6	1	3	202	0.00	30.231 
13:20	81.6	81.6	80.7	36	52.0	1	3	248	0.00	30.230 
13:25	81.4	81.4	80.6	36	51.9	0	3	248	0.00	30.229 
13:30	81.2	81.2	80.6	38	53.1	0	2	248	0.00	30.229 
13:35	81.2	81.2	80.4	36	51.7	1	3	248	0.00	30.228 
13:40	81.2	81.2	80.4	36	51.7	0	3	248	0.00	30.227 
13:45	81.2	81.2	80.5	37	52.4	1	2	248	0.00	30.222 
13:50	81.2	81.2	80.3	35	50.9	1	3	248	0.00	30.221 
13:55	81.2	81.2	80.3	35	50.9	1	3	248	0.00	30.220 
14:00	81.2	81.2	80.4	36	51.7	0	2	225	0.00	30.216 
14:05	81.4	81.4	80.6	36	51.9	1	3	248	0.00	30.217 
14:10	81.4	81.4	80.5	35	51.1	1	2	225	0.00	30.215 
14:15	81.4	81.4	80.5	35	51.1	0	2	225	0.00	30.214 
14:20	81.4	81.4	80.7	37	52.6	0	2	248	0.00	30.216 
14:25	81.6	81.6	80.6	35	51.3	0	2	248	0.00	30.213 
14:30	81.6	81.6	80.4	32	48.9	0	2	248	0.00	30.213 
14:35	81.6	81.6	80.5	34	50.5	1	2	248	0.00	30.214 
14:40	81.4	81.4	80.5	35	51.1	0	3	248	0.00	30.214 
14:45	81.4	81.4	80.4	34	50.3	1	4	248	0.00	30.213 
14:50	81.2	81.2	80.3	35	50.9	0	1	202	0.00	30.212 
14:55	80.9	80.9	80.3	37	52.2	0	1	202	0.00	30.212 
15:00	80.9	80.9	80.5	39	53.6	0	1	202	0.00	30.212 
15:05	80.9	80.9	80.3	37	52.2	0	1	202	0.00	30.212 
15:10	80.9	80.9	80.7	41	55.0	0	1	202	0.00	30.210 
15:15	81.1	81.1	80.7	40	54.5	0	1	202	0.00	30.207 
15:20	81.2	81.2	80.9	41	55.2	0	2	225	0.00	30.208 
15:25	81.6	81.6	81.0	39	54.2	0	2	225	0.00	30.208 
15:30	81.4	81.4	81.1	41	55.4	0	1	225	0.00	30.210 
15:35	81.2	81.2	80.7	39	53.9	0	3	112	0.00	30.206 
15:40	80.9	80.9	80.7	41	55.0	0	2	112	0.00	30.203 
15:45	80.5	80.5	80.4	41	54.6	0	1	112	0.00	30.201 
15:50	80.3	80.3	80.4	43	55.7	0	2	180	0.00	30.202 
15:55	79.9	79.9	80.1	43	55.4	1	2	180	0.00	30.200 
16:00	79.9	79.9	80.3	45	56.6	0	1	180	0.00	30.200 
16:05	79.6	79.6	80.0	45	56.4	0	4	270	0.00	30.200 
16:10	79.4	79.4	80.0	46	56.8	0	1	270	0.00	30.200 
16:15	79.2	79.2	79.9	47	57.2	0	1	270	0.00	30.199 
16:20	79.0	79.0	79.8	48	57.6	0	1	270	0.00	30.199 
16:25	78.8	78.8	79.7	49	58.0	0	0	---	0.00	30.198 
16:30	78.6	78.6	79.5	48	57.2	0	0	---	0.00	30.196 
16:35	78.5	78.5	79.5	49	57.7	0	0	---	0.00	30.197 
16:40	78.3	78.3	79.4	50	58.1	0	0	---	0.00	30.197 
16:45	78.1	78.1	79.3	50	57.9	0	0	---	0.00	30.193 
16:50	77.9	77.9	79.2	50	57.7	0	0	---	0.00	30.192 
16:55	77.9	77.9	79.2	50	57.7	0	0	---	0.00	30.191 
17:00	77.9	77.9	79.2	50	57.7	0	0	---	0.00	30.190 
17:05	77.9	77.9	79.2	51	58.3	0	0	---	0.00	30.190 
17:10	77.9	77.9	79.2	51	58.3	0	0	---	0.00	30.188 
17:15	77.9	77.9	79.3	52	58.8	0	1	270	0.00	30.187 
17:20	77.9	77.9	79.2	51	58.3	0	0	---	0.00	30.187 
17:25	77.7	77.7	79.1	52	58.6	0	0	---	0.00	30.187 
17:30	77.6	77.6	79.0	51	58.0	0	1	270	0.00	30.190 
17:35	77.4	77.4	78.9	51	57.8	0	2	270	0.00	30.191 
17:40	77.2	77.2	78.7	51	57.6	0	1	270	0.00	30.191 
17:45	77.0	77.0	78.6	50	56.9	0	1	270	0.00	30.191 
17:50	77.0	77.0	78.6	50	56.9	0	3	248	0.00	30.190 
17:55	77.0	77.0	78.6	50	56.9	0	2	248	0.00	30.189 
18:00	76.8	76.8	78.5	51	57.3	0	0	---	0.00	30.188 
18:05	76.5	76.5	78.3	51	57.0	0	0	---	0.00	30.188 
18:10	76.3	76.3	78.2	52	57.4	0	0	---	0.00	30.189 
18:15	76.0	76.0	78.1	53	57.6	0	0	---	0.00	30.188 
18:20	75.4	75.4	77.8	54	57.6	0	0	---	0.00	30.188 
18:25	74.9	74.9	74.9	55	57.6	0	0	---	0.00	30.188 
18:30	74.4	74.4	74.4	55	57.2	0	0	---	0.00	30.190 
18:35	73.9	73.9	73.9	57	57.7	0	0	---	0.00	30.190 
18:40	73.5	73.5	73.5	57	57.3	0	0	---	0.00	30.190 
18:45	73.0	73.0	73.0	58	57.3	0	0	---	0.00	30.191 
18:50	72.7	72.7	72.7	59	57.5	0	0	---	0.00	30.191 
18:55	72.3	72.3	72.3	60	57.6	0	0	---	0.00	30.191 
19:00	72.0	72.0	72.0	60	57.3	0	0	---	0.00	30.192 
19:05	71.6	71.6	71.6	61	57.4	0	0	---	0.00	30.189 
19:10	71.5	71.5	71.5	62	57.8	0	0	---	0.00	30.190 
19:15	71.1	71.1	71.1	62	57.4	0	0	---	0.00	30.192 
19:20	70.9	70.9	70.9	63	57.7	0	0	---	0.00	30.193 
19:25	70.6	70.6	70.6	63	57.4	0	0	---	0.00	30.194 
19:30	70.3	70.3	70.3	64	57.5	0	0	---	0.00	30.195 
19:35	70.1	70.1	70.1	65	57.8	0	0	---	0.00	30.193 
19:40	69.9	69.9	69.9	65	57.6	0	0	---	0.00	30.192 
19:45	69.6	69.6	69.6	65	57.3	0	0	---	0.00	30.191 
19:50	69.6	69.6	69.6	66	57.7	0	0	---	0.00	30.192 
19:55	69.6	69.6	69.6	66	57.7	0	0	---	0.00	30.191 
20:00	69.8	69.8	69.8	66	57.9	0	0	---	0.00	30.191 
20:05	69.8	69.8	69.8	66	57.9	0	0	---	0.00	30.184 
20:10	69.9	69.9	69.9	66	58.0	0	0	---	0.00	30.184 
20:15	70.1	70.1	70.1	65	57.8	0	0	---	0.00	30.184 
20:20	70.1	70.1	70.1	66	58.2	0	0	---	0.00	30.184 
20:25	70.1	70.1	70.1	66	58.2	0	0	---	0.00	30.184 
20:30	70.1	70.1	70.1	66	58.2	0	0	---	0.00	30.184 
20:35	70.1	70.1	70.1	66	58.2	0	0	---	0.00	30.184 
20:40	70.3	70.3	70.3	66	58.4	0	0	---	0.00	30.184 
20:45	70.4	70.4	70.4	65	58.1	0	1	248	0.00	30.184 
20:50	70.6	70.6	70.6	66	58.7	0	0	---	0.00	30.183 
20:55	70.8	70.8	70.8	65	58.4	0	1	248	0.00	30.183 
21:00	70.8	70.8	70.8	65	58.4	0	0	---	0.00	30.183 
21:05	70.9	70.9	70.9	64	58.1	0	1	248	0.00	30.177 
21:10	71.1	71.1	71.1	64	58.3	0	1	248	0.00	30.177 
21:15	71.1	71.1	71.1	64	58.3	0	1	248	0.00	30.177 
21:20	71.3	71.3	71.3	64	58.5	0	1	248	0.00	30.177 
21:25	71.3	71.3	71.3	64	58.5	0	1	248	0.00	30.176 
21:30	71.5	71.5	71.5	64	58.7	1	3	248	0.00	30.177 
21:35	71.6	71.6	71.6	63	58.3	0	1	248	0.00	30.177 
21:40	71.6	71.6	71.6	64	58.8	0	1	248	0.00	30.176 
21:45	71.6	71.6	71.6	64	58.8	0	1	248	0.00	30.176 
21:50	71.6	71.6	71.6	64	58.8	0	3	248	0.00	30.175 
21:55	71.8	71.8	71.8	64	59.0	0	3	248	0.00	30.173 
22:00	71.8	71.8	71.8	64	59.0	1	4	248	0.00	30.170 
22:05	71.8	71.8	71.8	64	59.0	0	2	248	0.00	30.165 
22:10	71.8	71.8	71.8	64	59.0	0	1	248	0.00	30.163 
22:15	71.8	71.8	71.8	64	59.0	0	2	248	0.00	30.161 
22:20	71.8	71.8	71.8	64	59.0	0	1	248	0.00	30.163 
22:25	71.6	71.6	71.6	64	58.8	1	2	270	0.00	30.162 
22:30	71.6	71.6	71.6	65	59.2	0	4	270	0.00	30.163 
22:35	71.5	71.5	71.5	65	59.1	0	2	248	0.00	30.163 
22:40	71.3	71.3	71.3	65	58.9	0	1	248	0.00	30.161 
22:45	71.1	71.1	71.1	65	58.7	0	1	248	0.00	30.160 
22:50	70.9	70.9	70.9	66	59.0	0	3	270	0.00	30.159 
22:55	70.9	70.9	70.9	66	59.0	0	1	270	0.00	30.159 
23:00	70.9	70.9	70.9	66	59.0	0	1	270	0.00	30.160 
23:05	70.8	70.8	70.8	66	58.9	0	1	270	0.00	30.157 
23:10	70.8	70.8	70.8	67	59.3	0	2	248	0.00	30.155 
23:15	70.6	70.6	70.6	67	59.1	0	2	248	0.00	30.155 
23:20	70.4	70.4	70.4	67	58.9	0	2	248	0.00	30.156 
23:25	70.1	70.1	70.1	68	59.0	0	1	248	0.00	30.155 
23:30	69.9	69.9	69.9	69	59.3	0	3	248	0.00	30.156 
23:35	69.8	69.8	69.8	69	59.2	0	2	248	0.00	30.154 
23:40	69.4	69.4	69.4	69	58.8	0	2	248	0.00	30.153 
23:45	69.3	69.3	69.3	70	59.1	0	3	248	0.00	30.153 
23:50	69.3	69.3	69.3	70	59.1	0	3	248	0.00	30.153 
23:55	69.1	69.1	69.1	70	58.9	0	1	248	0.00	30.153 

CoCoRaHS
IN-AL-39
A2 Web Hosting
Creative Commons License
GoDaddy
Look for:

loaded 2017-12-12 07:26:46 • last modified 2010-11-18 10:43:29
Privacy PolicyDisclaimer
• wx.awcolley.com is powered by PmWiki v.2002016 •
• all content (unless otherwise noted) © 2017 A W Colley